sensor_id;sensor_type;location;lat;lon;timestamp;P1;durP1;ratioP1;P2;durP2;ratioP2
33858;SDS011;20156;47.486;12.074;2022-07-05T00:02:05;2.35;;;1.88;;
33858;SDS011;20156;47.486;12.074;2022-07-05T00:04:30;2.80;;;1.52;;
33858;SDS011;20156;47.486;12.074;2022-07-05T00:06:55;1.70;;;1.38;;
33858;SDS011;20156;47.486;12.074;2022-07-05T00:09:39;1.27;;;1.15;;
33858;SDS011;20156;47.486;12.074;2022-07-05T00:12:05;1.45;;;1.35;;
33858;SDS011;20156;47.486;12.074;2022-07-05T00:14:31;1.48;;;1.38;;
33858;SDS011;20156;47.486;12.074;2022-07-05T00:16:56;1.48;;;1.38;;
33858;SDS011;20156;47.486;12.074;2022-07-05T00:19:22;1.88;;;1.40;;
33858;SDS011;20156;47.486;12.074;2022-07-05T00:21:47;2.00;;;1.77;;
33858;SDS011;20156;47.486;12.074;2022-07-05T00:24:12;3.83;;;2.10;;
33858;SDS011;20156;47.486;12.074;2022-07-05T00:26:38;1.92;;;1.65;;
33858;SDS011;20156;47.486;12.074;2022-07-05T00:29:03;1.45;;;1.30;;
33858;SDS011;20156;47.486;12.074;2022-07-05T00:31:29;1.92;;;1.73;;
33858;SDS011;20156;47.486;12.074;2022-07-05T00:33:54;2.47;;;2.28;;
33858;SDS011;20156;47.486;12.074;2022-07-05T00:36:19;1.73;;;1.60;;
33858;SDS011;20156;47.486;12.074;2022-07-05T00:38:45;2.63;;;1.80;;
33858;SDS011;20156;47.486;12.074;2022-07-05T00:41:10;1.67;;;1.58;;
33858;SDS011;20156;47.486;12.074;2022-07-05T00:43:36;2.63;;;2.22;;
33858;SDS011;20156;47.486;12.074;2022-07-05T00:46:01;2.10;;;1.75;;
33858;SDS011;20156;47.486;12.074;2022-07-05T00:48:26;1.55;;;1.42;;
33858;SDS011;20156;47.486;12.074;2022-07-05T00:50:52;1.60;;;1.50;;
33858;SDS011;20156;47.486;12.074;2022-07-05T00:53:17;1.92;;;1.77;;
33858;SDS011;20156;47.486;12.074;2022-07-05T00:55:43;1.30;;;1.25;;
33858;SDS011;20156;47.486;12.074;2022-07-05T00:58:10;2.35;;;2.15;;
33858;SDS011;20156;47.486;12.074;2022-07-05T01:00:36;2.25;;;1.80;;
33858;SDS011;20156;47.486;12.074;2022-07-05T01:03:02;2.10;;;1.90;;
33858;SDS011;20156;47.486;12.074;2022-07-05T01:05:28;1.85;;;1.75;;
33858;SDS011;20156;47.486;12.074;2022-07-05T01:07:56;1.33;;;1.23;;
33858;SDS011;20156;47.486;12.074;2022-07-05T01:10:23;2.55;;;1.50;;
33858;SDS011;20156;47.486;12.074;2022-07-05T01:12:49;1.27;;;1.20;;
33858;SDS011;20156;47.486;12.074;2022-07-05T01:15:14;2.53;;;2.17;;
33858;SDS011;20156;47.486;12.074;2022-07-05T01:17:41;4.07;;;1.60;;
33858;SDS011;20156;47.486;12.074;2022-07-05T01:20:07;1.65;;;1.50;;
33858;SDS011;20156;47.486;12.074;2022-07-05T01:22:49;1.60;;;1.50;;
33858;SDS011;20156;47.486;12.074;2022-07-05T01:25:15;2.25;;;1.73;;
33858;SDS011;20156;47.486;12.074;2022-07-05T01:27:41;2.65;;;1.98;;
33858;SDS011;20156;47.486;12.074;2022-07-05T01:30:07;2.30;;;1.60;;
33858;SDS011;20156;47.486;12.074;2022-07-05T01:32:32;2.65;;;1.80;;
33858;SDS011;20156;47.486;12.074;2022-07-05T01:34:58;1.92;;;1.83;;
33858;SDS011;20156;47.486;12.074;2022-07-05T01:37:24;1.90;;;1.80;;
33858;SDS011;20156;47.486;12.074;2022-07-05T01:39:49;3.15;;;1.73;;
33858;SDS011;20156;47.486;12.074;2022-07-05T01:42:17;2.08;;;1.92;;
33858;SDS011;20156;47.486;12.074;2022-07-05T01:44:42;1.85;;;1.75;;
33858;SDS011;20156;47.486;12.074;2022-07-05T01:47:08;2.35;;;1.52;;
33858;SDS011;20156;47.486;12.074;2022-07-05T01:49:34;2.72;;;1.70;;
33858;SDS011;20156;47.486;12.074;2022-07-05T01:52:10;1.70;;;1.60;;
33858;SDS011;20156;47.486;12.074;2022-07-05T01:54:36;1.63;;;1.52;;
33858;SDS011;20156;47.486;12.074;2022-07-05T01:57:03;1.50;;;1.40;;
33858;SDS011;20156;47.486;12.074;2022-07-05T01:59:31;1.63;;;1.52;;
33858;SDS011;20156;47.486;12.074;2022-07-05T02:02:00;1.70;;;1.60;;
33858;SDS011;20156;47.486;12.074;2022-07-05T02:04:26;1.20;;;1.20;;
33858;SDS011;20156;47.486;12.074;2022-07-05T02:06:53;1.55;;;1.45;;
33858;SDS011;20156;47.486;12.074;2022-07-05T02:09:18;2.00;;;1.70;;
33858;SDS011;20156;47.486;12.074;2022-07-05T02:11:44;2.63;;;1.90;;
33858;SDS011;20156;47.486;12.074;2022-07-05T02:14:09;1.90;;;1.80;;
33858;SDS011;20156;47.486;12.074;2022-07-05T02:16:35;2.10;;;1.60;;
33858;SDS011;20156;47.486;12.074;2022-07-05T02:19:01;2.67;;;2.20;;
33858;SDS011;20156;47.486;12.074;2022-07-05T02:21:26;2.38;;;2.17;;
33858;SDS011;20156;47.486;12.074;2022-07-05T02:23:52;2.30;;;1.90;;
33858;SDS011;20156;47.486;12.074;2022-07-05T02:26:17;2.60;;;2.40;;
33858;SDS011;20156;47.486;12.074;2022-07-05T02:28:43;1.60;;;1.50;;
33858;SDS011;20156;47.486;12.074;2022-07-05T02:31:08;1.63;;;1.52;;
33858;SDS011;20156;47.486;12.074;2022-07-05T02:33:34;1.73;;;1.63;;
33858;SDS011;20156;47.486;12.074;2022-07-05T02:36:06;2.13;;;1.92;;
33858;SDS011;20156;47.486;12.074;2022-07-05T02:38:36;2.47;;;2.28;;
33858;SDS011;20156;47.486;12.074;2022-07-05T02:41:05;3.35;;;2.30;;
33858;SDS011;20156;47.486;12.074;2022-07-05T02:43:32;2.38;;;2.17;;
33858;SDS011;20156;47.486;12.074;2022-07-05T02:45:58;2.47;;;2.10;;
33858;SDS011;20156;47.486;12.074;2022-07-05T02:48:24;2.80;;;2.53;;
33858;SDS011;20156;47.486;12.074;2022-07-05T02:50:49;2.58;;;2.38;;
33858;SDS011;20156;47.486;12.074;2022-07-05T02:53:14;3.95;;;2.72;;
33858;SDS011;20156;47.486;12.074;2022-07-05T02:55:40;3.30;;;3.00;;
33858;SDS011;20156;47.486;12.074;2022-07-05T02:58:05;6.45;;;2.95;;
33858;SDS011;20156;47.486;12.074;2022-07-05T03:00:31;3.97;;;3.58;;
33858;SDS011;20156;47.486;12.074;2022-07-05T03:02:57;3.83;;;3.42;;
33858;SDS011;20156;47.486;12.074;2022-07-05T03:05:22;4.22;;;3.47;;
33858;SDS011;20156;47.486;12.074;2022-07-05T03:07:47;3.20;;;2.90;;
33858;SDS011;20156;47.486;12.074;2022-07-05T03:10:13;3.70;;;3.35;;
33858;SDS011;20156;47.486;12.074;2022-07-05T03:12:38;3.17;;;2.75;;
33858;SDS011;20156;47.486;12.074;2022-07-05T03:15:03;2.90;;;2.50;;
33858;SDS011;20156;47.486;12.074;2022-07-05T03:17:29;3.58;;;3.15;;
33858;SDS011;20156;47.486;12.074;2022-07-05T03:19:55;3.10;;;2.80;;
33858;SDS011;20156;47.486;12.074;2022-07-05T03:22:20;3.58;;;3.28;;
33858;SDS011;20156;47.486;12.074;2022-07-05T03:24:46;4.18;;;3.20;;
33858;SDS011;20156;47.486;12.074;2022-07-05T03:27:11;3.45;;;3.15;;
33858;SDS011;20156;47.486;12.074;2022-07-05T03:29:36;3.40;;;3.08;;
33858;SDS011;20156;47.486;12.074;2022-07-05T03:32:02;2.95;;;2.75;;
33858;SDS011;20156;47.486;12.074;2022-07-05T03:34:27;2.78;;;2.58;;
33858;SDS011;20156;47.486;12.074;2022-07-05T03:36:53;3.75;;;3.00;;
33858;SDS011;20156;47.486;12.074;2022-07-05T03:39:18;3.25;;;2.90;;
33858;SDS011;20156;47.486;12.074;2022-07-05T03:41:44;3.70;;;2.65;;
33858;SDS011;20156;47.486;12.074;2022-07-05T03:44:09;2.90;;;2.70;;
33858;SDS011;20156;47.486;12.074;2022-07-05T03:46:34;6.65;;;2.90;;
33858;SDS011;20156;47.486;12.074;2022-07-05T03:49:00;4.65;;;4.07;;
33858;SDS011;20156;47.486;12.074;2022-07-05T03:51:25;5.53;;;4.45;;
33858;SDS011;20156;47.486;12.074;2022-07-05T03:53:50;4.78;;;4.20;;
33858;SDS011;20156;47.486;12.074;2022-07-05T03:56:16;3.85;;;3.45;;
33858;SDS011;20156;47.486;12.074;2022-07-05T03:58:46;4.20;;;3.80;;
33858;SDS011;20156;47.486;12.074;2022-07-05T04:01:15;6.85;;;5.05;;
33858;SDS011;20156;47.486;12.074;2022-07-05T04:03:41;4.20;;;3.72;;
33858;SDS011;20156;47.486;12.074;2022-07-05T04:06:10;3.63;;;3.33;;
33858;SDS011;20156;47.486;12.074;2022-07-05T04:08:36;4.25;;;3.45;;
33858;SDS011;20156;47.486;12.074;2022-07-05T04:11:02;3.90;;;3.33;;
33858;SDS011;20156;47.486;12.074;2022-07-05T04:13:28;4.75;;;3.97;;
33858;SDS011;20156;47.486;12.074;2022-07-05T04:15:53;3.63;;;3.28;;
33858;SDS011;20156;47.486;12.074;2022-07-05T04:18:20;3.95;;;3.60;;
33858;SDS011;20156;47.486;12.074;2022-07-05T04:20:46;5.05;;;3.72;;
33858;SDS011;20156;47.486;12.074;2022-07-05T04:23:12;3.90;;;3.50;;
33858;SDS011;20156;47.486;12.074;2022-07-05T04:25:37;5.22;;;4.72;;
33858;SDS011;20156;47.486;12.074;2022-07-05T04:28:03;3.20;;;2.90;;
33858;SDS011;20156;47.486;12.074;2022-07-05T04:30:29;3.85;;;3.53;;
33858;SDS011;20156;47.486;12.074;2022-07-05T04:32:54;3.78;;;3.10;;
33858;SDS011;20156;47.486;12.074;2022-07-05T04:35:21;5.07;;;2.88;;
33858;SDS011;20156;47.486;12.074;2022-07-05T04:37:46;2.92;;;2.72;;
33858;SDS011;20156;47.486;12.074;2022-07-05T04:40:13;2.38;;;2.17;;
33858;SDS011;20156;47.486;12.074;2022-07-05T04:42:39;2.88;;;2.63;;
33858;SDS011;20156;47.486;12.074;2022-07-05T04:45:05;2.20;;;2.00;;
33858;SDS011;20156;47.486;12.074;2022-07-05T04:47:32;2.90;;;2.13;;
33858;SDS011;20156;47.486;12.074;2022-07-05T04:49:59;2.97;;;1.67;;
33858;SDS011;20156;47.486;12.074;2022-07-05T04:52:25;1.60;;;1.50;;
33858;SDS011;20156;47.486;12.074;2022-07-05T04:54:51;2.00;;;0.98;;
33858;SDS011;20156;47.486;12.074;2022-07-05T04:57:16;1.60;;;1.50;;
33858;SDS011;20156;47.486;12.074;2022-07-05T04:59:42;1.35;;;1.25;;
33858;SDS011;20156;47.486;12.074;2022-07-05T05:02:07;2.63;;;1.33;;
33858;SDS011;20156;47.486;12.074;2022-07-05T05:04:32;2.45;;;2.17;;
33858;SDS011;20156;47.486;12.074;2022-07-05T05:06:58;1.65;;;1.55;;
33858;SDS011;20156;47.486;12.074;2022-07-05T05:09:23;1.67;;;1.58;;
33858;SDS011;20156;47.486;12.074;2022-07-05T05:11:49;2.40;;;2.20;;
33858;SDS011;20156;47.486;12.074;2022-07-05T05:14:15;2.95;;;2.15;;
33858;SDS011;20156;47.486;12.074;2022-07-05T05:16:40;2.90;;;2.70;;
33858;SDS011;20156;47.486;12.074;2022-07-05T05:19:06;2.88;;;2.42;;
33858;SDS011;20156;47.486;12.074;2022-07-05T05:21:31;2.67;;;2.40;;
33858;SDS011;20156;47.486;12.074;2022-07-05T05:23:56;2.80;;;2.58;;
33858;SDS011;20156;47.486;12.074;2022-07-05T05:26:22;3.00;;;2.70;;
33858;SDS011;20156;47.486;12.074;2022-07-05T05:28:47;2.00;;;1.77;;
33858;SDS011;20156;47.486;12.074;2022-07-05T05:31:13;1.90;;;1.75;;
33858;SDS011;20156;47.486;12.074;2022-07-05T05:33:38;2.13;;;1.92;;
33858;SDS011;20156;47.486;12.074;2022-07-05T05:36:04;2.83;;;1.70;;
33858;SDS011;20156;47.486;12.074;2022-07-05T05:38:30;1.77;;;1.40;;
33858;SDS011;20156;47.486;12.074;2022-07-05T05:40:55;2.10;;;1.90;;
33858;SDS011;20156;47.486;12.074;2022-07-05T05:43:21;2.70;;;1.50;;
33858;SDS011;20156;47.486;12.074;2022-07-05T05:45:46;2.10;;;1.85;;
33858;SDS011;20156;47.486;12.074;2022-07-05T05:48:11;2.25;;;1.83;;
33858;SDS011;20156;47.486;12.074;2022-07-05T05:50:37;1.95;;;1.77;;
33858;SDS011;20156;47.486;12.074;2022-07-05T05:53:06;2.15;;;1.95;;
33858;SDS011;20156;47.486;12.074;2022-07-05T05:55:31;2.72;;;2.50;;
33858;SDS011;20156;47.486;12.074;2022-07-05T05:58:10;7.22;;;4.70;;
33858;SDS011;20156;47.486;12.074;2022-07-05T06:00:46;3.22;;;2.90;;
33858;SDS011;20156;47.486;12.074;2022-07-05T06:03:19;2.45;;;2.10;;
33858;SDS011;20156;47.486;12.074;2022-07-05T06:05:45;2.40;;;2.20;;
33858;SDS011;20156;47.486;12.074;2022-07-05T06:08:11;2.22;;;2.03;;
33858;SDS011;20156;47.486;12.074;2022-07-05T06:10:38;2.45;;;1.83;;
33858;SDS011;20156;47.486;12.074;2022-07-05T06:13:07;2.78;;;2.40;;
33858;SDS011;20156;47.486;12.074;2022-07-05T06:15:35;2.83;;;1.92;;
33858;SDS011;20156;47.486;12.074;2022-07-05T06:18:01;3.03;;;2.78;;
33858;SDS011;20156;47.486;12.074;2022-07-05T06:20:28;2.38;;;2.17;;
33858;SDS011;20156;47.486;12.074;2022-07-05T06:22:55;5.13;;;3.50;;
33858;SDS011;20156;47.486;12.074;2022-07-05T06:25:22;4.93;;;4.30;;
33858;SDS011;20156;47.486;12.074;2022-07-05T06:27:48;4.65;;;4.25;;
33858;SDS011;20156;47.486;12.074;2022-07-05T06:30:16;4.18;;;3.70;;
33858;SDS011;20156;47.486;12.074;2022-07-05T06:32:43;4.35;;;3.95;;
33858;SDS011;20156;47.486;12.074;2022-07-05T06:35:09;5.88;;;3.92;;
33858;SDS011;20156;47.486;12.074;2022-07-05T06:40:09;4.53;;;4.13;;
33858;SDS011;20156;47.486;12.074;2022-07-05T06:42:36;5.68;;;4.25;;
33858;SDS011;20156;47.486;12.074;2022-07-05T06:45:01;4.68;;;3.85;;
33858;SDS011;20156;47.486;12.074;2022-07-05T06:47:26;3.65;;;3.35;;
33858;SDS011;20156;47.486;12.074;2022-07-05T06:49:52;4.68;;;4.00;;
33858;SDS011;20156;47.486;12.074;2022-07-05T06:52:17;5.40;;;3.05;;
33858;SDS011;20156;47.486;12.074;2022-07-05T06:54:42;4.72;;;3.30;;
33858;SDS011;20156;47.486;12.074;2022-07-05T06:57:08;5.53;;;4.55;;
33858;SDS011;20156;47.486;12.074;2022-07-05T06:59:33;5.28;;;4.20;;
33858;SDS011;20156;47.486;12.074;2022-07-05T07:01:59;5.18;;;4.43;;
33858;SDS011;20156;47.486;12.074;2022-07-05T07:04:24;4.97;;;4.07;;
33858;SDS011;20156;47.486;12.074;2022-07-05T07:06:49;5.95;;;3.78;;
33858;SDS011;20156;47.486;12.074;2022-07-05T07:09:15;5.38;;;4.32;;
33858;SDS011;20156;47.486;12.074;2022-07-05T07:11:43;4.53;;;4.10;;
33858;SDS011;20156;47.486;12.074;2022-07-05T07:14:09;4.30;;;3.90;;
33858;SDS011;20156;47.486;12.074;2022-07-05T07:16:35;4.57;;;4.07;;
33858;SDS011;20156;47.486;12.074;2022-07-05T07:19:01;6.53;;;3.88;;
33858;SDS011;20156;47.486;12.074;2022-07-05T07:21:27;4.47;;;4.07;;
33858;SDS011;20156;47.486;12.074;2022-07-05T07:23:52;5.93;;;4.55;;
33858;SDS011;20156;47.486;12.074;2022-07-05T07:26:18;4.20;;;3.67;;
33858;SDS011;20156;47.486;12.074;2022-07-05T07:28:43;9.05;;;4.32;;
33858;SDS011;20156;47.486;12.074;2022-07-05T07:31:08;3.65;;;3.35;;
33858;SDS011;20156;47.486;12.074;2022-07-05T07:33:34;4.60;;;4.20;;
33858;SDS011;20156;47.486;12.074;2022-07-05T07:36:00;5.53;;;4.57;;
33858;SDS011;20156;47.486;12.074;2022-07-05T07:38:25;6.70;;;4.05;;
33858;SDS011;20156;47.486;12.074;2022-07-05T07:40:51;6.05;;;4.18;;
33858;SDS011;20156;47.486;12.074;2022-07-05T07:43:17;5.50;;;4.43;;
33858;SDS011;20156;47.486;12.074;2022-07-05T07:45:43;5.07;;;4.18;;
33858;SDS011;20156;47.486;12.074;2022-07-05T07:48:08;4.50;;;3.88;;
33858;SDS011;20156;47.486;12.074;2022-07-05T07:50:34;4.45;;;3.72;;
33858;SDS011;20156;47.486;12.074;2022-07-05T07:53:00;4.22;;;3.88;;
33858;SDS011;20156;47.486;12.074;2022-07-05T07:55:25;5.00;;;3.00;;
33858;SDS011;20156;47.486;12.074;2022-07-05T07:57:51;3.70;;;3.35;;
33858;SDS011;20156;47.486;12.074;2022-07-05T08:00:16;4.10;;;3.70;;
33858;SDS011;20156;47.486;12.074;2022-07-05T08:02:42;3.25;;;2.95;;
33858;SDS011;20156;47.486;12.074;2022-07-05T08:05:07;2.85;;;2.53;;
33858;SDS011;20156;47.486;12.074;2022-07-05T08:07:34;3.33;;;2.78;;
33858;SDS011;20156;47.486;12.074;2022-07-05T08:10:03;3.45;;;2.65;;
33858;SDS011;20156;47.486;12.074;2022-07-05T08:12:29;3.13;;;2.85;;
33858;SDS011;20156;47.486;12.074;2022-07-05T08:14:55;4.00;;;2.70;;
33858;SDS011;20156;47.486;12.074;2022-07-05T08:17:20;3.70;;;3.40;;
33858;SDS011;20156;47.486;12.074;2022-07-05T08:19:46;3.53;;;2.65;;
33858;SDS011;20156;47.486;12.074;2022-07-05T08:22:31;3.40;;;3.10;;
33858;SDS011;20156;47.486;12.074;2022-07-05T08:24:56;3.10;;;2.90;;
33858;SDS011;20156;47.486;12.074;2022-07-05T08:27:22;3.55;;;2.95;;
33858;SDS011;20156;47.486;12.074;2022-07-05T08:29:47;3.28;;;2.92;;
33858;SDS011;20156;47.486;12.074;2022-07-05T08:32:13;2.75;;;2.55;;
33858;SDS011;20156;47.486;12.074;2022-07-05T08:34:38;3.13;;;2.83;;
33858;SDS011;20156;47.486;12.074;2022-07-05T08:37:04;2.95;;;2.75;;
33858;SDS011;20156;47.486;12.074;2022-07-05T08:39:30;4.28;;;3.20;;
33858;SDS011;20156;47.486;12.074;2022-07-05T08:41:56;4.35;;;2.80;;
33858;SDS011;20156;47.486;12.074;2022-07-05T08:44:23;3.28;;;2.97;;
33858;SDS011;20156;47.486;12.074;2022-07-05T08:46:50;2.80;;;2.60;;
33858;SDS011;20156;47.486;12.074;2022-07-05T08:49:21;4.57;;;2.85;;
33858;SDS011;20156;47.486;12.074;2022-07-05T08:51:49;4.00;;;2.92;;
33858;SDS011;20156;47.486;12.074;2022-07-05T08:54:15;3.63;;;3.22;;
33858;SDS011;20156;47.486;12.074;2022-07-05T08:56:42;3.42;;;3.10;;
33858;SDS011;20156;47.486;12.074;2022-07-05T08:59:08;3.40;;;3.10;;
33858;SDS011;20156;47.486;12.074;2022-07-05T09:01:34;3.10;;;2.60;;
33858;SDS011;20156;47.486;12.074;2022-07-05T09:04:03;2.97;;;2.72;;
33858;SDS011;20156;47.486;12.074;2022-07-05T09:06:31;3.42;;;3.10;;
33858;SDS011;20156;47.486;12.074;2022-07-05T09:08:59;4.40;;;3.53;;
33858;SDS011;20156;47.486;12.074;2022-07-05T09:11:37;3.50;;;3.20;;
33858;SDS011;20156;47.486;12.074;2022-07-05T09:14:07;3.55;;;3.25;;
33858;SDS011;20156;47.486;12.074;2022-07-05T09:16:43;3.40;;;3.10;;
33858;SDS011;20156;47.486;12.074;2022-07-05T09:19:09;3.40;;;3.05;;
33858;SDS011;20156;47.486;12.074;2022-07-05T09:21:35;3.22;;;2.90;;
33858;SDS011;20156;47.486;12.074;2022-07-05T09:24:04;3.00;;;2.80;;
33858;SDS011;20156;47.486;12.074;2022-07-05T09:26:39;3.35;;;2.92;;
33858;SDS011;20156;47.486;12.074;2022-07-05T09:29:17;3.78;;;3.20;;
33858;SDS011;20156;47.486;12.074;2022-07-05T09:31:44;3.55;;;3.25;;
33858;SDS011;20156;47.486;12.074;2022-07-05T09:44:57;4.25;;;3.85;;
33858;SDS011;20156;47.486;12.074;2022-07-05T09:47:24;6.97;;;4.43;;
33858;SDS011;20156;47.486;12.074;2022-07-05T09:49:53;7.05;;;4.28;;
33858;SDS011;20156;47.486;12.074;2022-07-05T09:55:08;5.07;;;3.88;;
33858;SDS011;20156;47.486;12.074;2022-07-05T09:57:36;5.15;;;4.32;;
33858;SDS011;20156;47.486;12.074;2022-07-05T10:00:13;4.50;;;4.07;;
33858;SDS011;20156;47.486;12.074;2022-07-05T10:02:47;5.40;;;4.40;;
33858;SDS011;20156;47.486;12.074;2022-07-05T10:56:11;6.22;;;3.92;;
33858;SDS011;20156;47.486;12.074;2022-07-05T11:16:44;2.40;;;2.20;;
33858;SDS011;20156;47.486;12.074;2022-07-05T11:19:13;2.03;;;1.92;;
33858;SDS011;20156;47.486;12.074;2022-07-05T11:24:31;1.98;;;1.88;;
33858;SDS011;20156;47.486;12.074;2022-07-05T11:26:59;3.78;;;2.25;;
33858;SDS011;20156;47.486;12.074;2022-07-05T11:32:23;2.35;;;2.17;;
33858;SDS011;20156;47.486;12.074;2022-07-05T11:35:12;3.10;;;2.13;;
33858;SDS011;20156;47.486;12.074;2022-07-05T11:37:58;2.55;;;2.20;;
33858;SDS011;20156;47.486;12.074;2022-07-05T11:42:50;2.40;;;2.20;;
33858;SDS011;20156;47.486;12.074;2022-07-05T11:45:16;2.75;;;2.20;;
33858;SDS011;20156;47.486;12.074;2022-07-05T11:47:42;3.33;;;1.88;;
33858;SDS011;20156;47.486;12.074;2022-07-05T11:50:08;2.05;;;1.90;;
33858;SDS011;20156;47.486;12.074;2022-07-05T11:52:36;2.30;;;2.10;;
33858;SDS011;20156;47.486;12.074;2022-07-05T11:55:03;3.58;;;2.30;;
33858;SDS011;20156;47.486;12.074;2022-07-05T11:57:30;2.00;;;1.80;;
33858;SDS011;20156;47.486;12.074;2022-07-05T11:59:55;2.53;;;2.33;;
33858;SDS011;20156;47.486;12.074;2022-07-05T12:02:21;3.08;;;2.30;;
33858;SDS011;20156;47.486;12.074;2022-07-05T12:04:50;2.17;;;1.90;;
33858;SDS011;20156;47.486;12.074;2022-07-05T12:07:30;2.70;;;2.30;;
33858;SDS011;20156;47.486;12.074;2022-07-05T12:09:59;2.42;;;2.22;;
33858;SDS011;20156;47.486;12.074;2022-07-05T12:12:44;2.38;;;2.17;;
33858;SDS011;20156;47.486;12.074;2022-07-05T12:15:20;2.58;;;2.38;;
33858;SDS011;20156;47.486;12.074;2022-07-05T12:17:49;2.90;;;2.42;;
33858;SDS011;20156;47.486;12.074;2022-07-05T12:20:22;2.40;;;2.17;;
33858;SDS011;20156;47.486;12.074;2022-07-05T12:22:49;3.30;;;2.45;;
33858;SDS011;20156;47.486;12.074;2022-07-05T12:25:19;4.35;;;3.03;;
33858;SDS011;20156;47.486;12.074;2022-07-05T12:27:46;4.13;;;2.92;;
33858;SDS011;20156;47.486;12.074;2022-07-05T12:30:12;3.40;;;3.10;;
33858;SDS011;20156;47.486;12.074;2022-07-05T12:38:05;4.20;;;3.00;;
33858;SDS011;20156;47.486;12.074;2022-07-05T12:40:32;3.50;;;2.90;;
33858;SDS011;20156;47.486;12.074;2022-07-05T12:43:12;6.07;;;3.42;;
33858;SDS011;20156;47.486;12.074;2022-07-05T12:45:39;3.95;;;2.83;;
33858;SDS011;20156;47.486;12.074;2022-07-05T12:48:06;3.63;;;2.88;;
33858;SDS011;20156;47.486;12.074;2022-07-05T12:53:13;2.63;;;2.42;;
33858;SDS011;20156;47.486;12.074;2022-07-05T12:55:58;4.13;;;3.10;;
33858;SDS011;20156;47.486;12.074;2022-07-05T13:01:32;3.00;;;2.65;;
33858;SDS011;20156;47.486;12.074;2022-07-05T13:09:10;2.65;;;2.28;;
33858;SDS011;20156;47.486;12.074;2022-07-05T13:11:37;3.20;;;2.38;;
33858;SDS011;20156;47.486;12.074;2022-07-05T13:14:02;3.20;;;2.30;;
33858;SDS011;20156;47.486;12.074;2022-07-05T13:16:28;3.25;;;2.92;;
33858;SDS011;20156;47.486;12.074;2022-07-05T13:18:54;4.07;;;3.30;;
33858;SDS011;20156;47.486;12.074;2022-07-05T13:21:19;4.05;;;3.55;;
33858;SDS011;20156;47.486;12.074;2022-07-05T13:23:45;2.97;;;2.70;;
33858;SDS011;20156;47.486;12.074;2022-07-05T13:26:10;2.92;;;2.67;;
33858;SDS011;20156;47.486;12.074;2022-07-05T13:28:36;3.75;;;2.25;;
33858;SDS011;20156;47.486;12.074;2022-07-05T13:31:01;2.28;;;1.90;;
33858;SDS011;20156;47.486;12.074;2022-07-05T13:33:27;2.63;;;2.40;;
33858;SDS011;20156;47.486;12.074;2022-07-05T13:35:52;2.08;;;1.98;;
33858;SDS011;20156;47.486;12.074;2022-07-05T13:38:18;2.10;;;2.00;;
33858;SDS011;20156;47.486;12.074;2022-07-05T13:40:44;2.75;;;2.40;;
33858;SDS011;20156;47.486;12.074;2022-07-05T13:43:09;2.15;;;1.92;;
33858;SDS011;20156;47.486;12.074;2022-07-05T13:45:34;2.83;;;2.25;;
33858;SDS011;20156;47.486;12.074;2022-07-05T13:48:00;2.42;;;2.25;;
33858;SDS011;20156;47.486;12.074;2022-07-05T13:50:26;3.33;;;2.58;;
33858;SDS011;20156;47.486;12.074;2022-07-05T13:52:59;2.67;;;2.35;;
33858;SDS011;20156;47.486;12.074;2022-07-05T13:55:25;2.45;;;2.25;;
33858;SDS011;20156;47.486;12.074;2022-07-05T13:57:50;2.30;;;2.10;;
33858;SDS011;20156;47.486;12.074;2022-07-05T14:00:16;2.55;;;2.20;;
33858;SDS011;20156;47.486;12.074;2022-07-05T14:02:45;2.70;;;2.50;;
33858;SDS011;20156;47.486;12.074;2022-07-05T14:05:11;3.25;;;2.55;;
33858;SDS011;20156;47.486;12.074;2022-07-05T14:07:37;2.80;;;2.45;;
33858;SDS011;20156;47.486;12.074;2022-07-05T14:10:03;3.78;;;2.60;;
33858;SDS011;20156;47.486;12.074;2022-07-05T14:12:29;4.40;;;2.72;;
33858;SDS011;20156;47.486;12.074;2022-07-05T14:14:54;3.55;;;2.80;;
33858;SDS011;20156;47.486;12.074;2022-07-05T14:17:20;5.25;;;2.95;;
33858;SDS011;20156;47.486;12.074;2022-07-05T14:19:45;2.63;;;2.42;;
33858;SDS011;20156;47.486;12.074;2022-07-05T14:22:10;3.22;;;2.50;;
33858;SDS011;20156;47.486;12.074;2022-07-05T14:24:36;4.47;;;2.63;;
33858;SDS011;20156;47.486;12.074;2022-07-05T14:27:01;3.30;;;3.00;;
33858;SDS011;20156;47.486;12.074;2022-07-05T14:29:27;3.13;;;2.83;;
33858;SDS011;20156;47.486;12.074;2022-07-05T14:31:52;3.05;;;2.80;;
33858;SDS011;20156;47.486;12.074;2022-07-05T14:34:18;3.22;;;2.38;;
33858;SDS011;20156;47.486;12.074;2022-07-05T14:36:43;2.85;;;2.60;;
33858;SDS011;20156;47.486;12.074;2022-07-05T14:39:08;3.15;;;2.83;;
33858;SDS011;20156;47.486;12.074;2022-07-05T14:41:34;2.65;;;2.33;;
33858;SDS011;20156;47.486;12.074;2022-07-05T14:43:59;2.53;;;2.20;;
33858;SDS011;20156;47.486;12.074;2022-07-05T14:46:25;3.85;;;1.92;;
33858;SDS011;20156;47.486;12.074;2022-07-05T14:48:50;2.50;;;2.30;;
33858;SDS011;20156;47.486;12.074;2022-07-05T14:51:15;3.30;;;2.50;;
33858;SDS011;20156;47.486;12.074;2022-07-05T14:53:41;2.33;;;2.15;;
33858;SDS011;20156;47.486;12.074;2022-07-05T14:56:09;2.10;;;1.90;;
33858;SDS011;20156;47.486;12.074;2022-07-05T14:58:35;3.10;;;2.28;;
33858;SDS011;20156;47.486;12.074;2022-07-05T15:01:00;2.13;;;2.00;;
33858;SDS011;20156;47.486;12.074;2022-07-05T15:03:25;1.95;;;1.85;;
33858;SDS011;20156;47.486;12.074;2022-07-05T15:05:52;2.95;;;2.00;;
33858;SDS011;20156;47.486;12.074;2022-07-05T15:08:18;2.30;;;1.90;;
33858;SDS011;20156;47.486;12.074;2022-07-05T15:10:45;3.03;;;2.70;;
33858;SDS011;20156;47.486;12.074;2022-07-05T15:13:10;4.07;;;2.00;;
33858;SDS011;20156;47.486;12.074;2022-07-05T15:15:36;2.50;;;2.30;;
33858;SDS011;20156;47.486;12.074;2022-07-05T15:18:02;3.80;;;2.40;;
33858;SDS011;20156;47.486;12.074;2022-07-05T15:20:28;4.10;;;2.53;;
33858;SDS011;20156;47.486;12.074;2022-07-05T15:22:53;2.80;;;2.60;;
33858;SDS011;20156;47.486;12.074;2022-07-05T15:25:19;2.85;;;2.65;;
33858;SDS011;20156;47.486;12.074;2022-07-05T15:27:44;3.92;;;2.60;;
33858;SDS011;20156;47.486;12.074;2022-07-05T15:30:10;3.42;;;2.75;;
33858;SDS011;20156;47.486;12.074;2022-07-05T15:32:39;3.17;;;2.78;;
33858;SDS011;20156;47.486;12.074;2022-07-05T15:35:04;3.85;;;2.80;;
33858;SDS011;20156;47.486;12.074;2022-07-05T15:37:30;2.70;;;2.47;;
33858;SDS011;20156;47.486;12.074;2022-07-05T15:39:55;3.13;;;2.35;;
33858;SDS011;20156;47.486;12.074;2022-07-05T15:42:23;2.53;;;2.30;;
33858;SDS011;20156;47.486;12.074;2022-07-05T15:44:49;2.65;;;2.42;;
33858;SDS011;20156;47.486;12.074;2022-07-05T15:47:14;2.60;;;2.40;;
33858;SDS011;20156;47.486;12.074;2022-07-05T15:49:40;2.60;;;2.40;;
33858;SDS011;20156;47.486;12.074;2022-07-05T15:52:06;2.83;;;2.50;;
33858;SDS011;20156;47.486;12.074;2022-07-05T15:54:32;2.83;;;2.58;;
33858;SDS011;20156;47.486;12.074;2022-07-05T15:56:58;2.50;;;2.30;;
33858;SDS011;20156;47.486;12.074;2022-07-05T15:59:24;2.78;;;2.50;;
33858;SDS011;20156;47.486;12.074;2022-07-05T16:01:52;2.38;;;2.25;;
33858;SDS011;20156;47.486;12.074;2022-07-05T16:04:18;2.20;;;2.10;;
33858;SDS011;20156;47.486;12.074;2022-07-05T16:06:43;2.50;;;2.25;;
33858;SDS011;20156;47.486;12.074;2022-07-05T16:09:09;2.67;;;2.47;;
33858;SDS011;20156;47.486;12.074;2022-07-05T16:11:35;2.95;;;2.20;;
33858;SDS011;20156;47.486;12.074;2022-07-05T16:14:01;2.90;;;2.70;;
33858;SDS011;20156;47.486;12.074;2022-07-05T16:16:26;3.28;;;2.67;;
33858;SDS011;20156;47.486;12.074;2022-07-05T16:18:52;2.80;;;2.60;;
33858;SDS011;20156;47.486;12.074;2022-07-05T16:21:17;3.20;;;2.67;;